• Join FlightAware (Why Join?)
  • Login
  • US Flag 
07:58PM EDT


 

Airport Tracker/Info


-or-


 

Live Flight TrackerFlight Track Log ✈ N462B ✈ 05-Jul-2013 ✈ KMEM - KECP

Flight Track Log - Related Links

Times and Time Zones

All times are in EDT time to prevent confusion due to time zone crossing. See the N462B flight status page for this flight to view local times or setup timezone preferences in your user account.

Time Position Orientation Groundspeed Altitude Reporting Facility
EDT Latitude Longitude Course Direction KTS MPH feet Rate Location/Type
01:26PM 35.0667 -89.9500 321° Northwest 146 168 1,100  Level KMEM
01:26PM 35.0833 -89.9667 321° Northwest 161 185 2,600 2,700 Climbing KMEM
01:28PM 35.1333 -90.0000 331° Northwest 169 194 6,300 2,340 Climbing KMEM
01:29PM 35.1500 -90.0500 292° West 217 250 7,800 2,340 Climbing KMEM
01:30PM 35.1167 -90.1167 239° Southwest 236 272 10,800 2,640 Climbing KMEM
01:31PM 35.0133 -90.1492 194° South 238 274 14,400 2,040 Climbing Memphis Center
01:32PM 34.9342 -90.1392 174° South 260 299 15,900 1,200 Climbing Memphis Center
01:33PM 34.8444 -90.1369 179° South 314 361 16,800 1,500 Climbing Memphis Center
01:34PM 34.7589 -90.1144 168° South 325 374 19,000 2,220 Climbing Memphis Center
01:35PM 34.6919 -90.0414 138° Southeast 307 353 21,300 1,980 Climbing Memphis Center
01:36PM 34.6269 -89.9736 139° Southeast 307 353 23,000 1,500 Climbing Memphis Center
01:37PM 34.5578 -89.9006 139° Southeast 313 360 24,400 1,500 Climbing Memphis Center
01:38PM 34.4889 -89.8281 139° Southeast 325 374 26,000 1,560 Climbing Memphis Center
01:39PM 34.4194 -89.7528 138° Southeast 330 380 27,600 1,560 Climbing Memphis Center
01:40PM 34.3525 -89.6778 137° Southeast 335 386 29,200 1,440 Climbing Memphis Center
01:41PM 34.2894 -89.6131 140° Southeast 330 380 30,500 1,560 Climbing Memphis Center
01:42PM 34.2264 -89.5483 140° Southeast 325 374 32,400 1,980 Climbing Memphis Center
01:43PM 34.1697 -89.4836 137° Southeast 296 341 34,500 1,260 Climbing Memphis Center
01:44PM 34.1128 -89.4264 140° Southeast 276 318 35,000 240 Climbing Memphis Center
01:45PM 34.0517 -89.3594 138° Southeast 281 323 35,000  Level Memphis Center
01:46PM 33.9822 -89.2875 139° Southeast 314 361 35,000  Level Memphis Center
01:47PM 33.9108 -89.2158 140° Southeast 327 376 35,000  Level Memphis Center
01:48PM 33.8369 -89.1369 138° Southeast 339 390 35,000  Level Memphis Center
01:49PM 33.7589 -89.0556 139° Southeast 339 390 35,000  Level Memphis Center
01:50PM 33.6850 -88.9792 139° Southeast 339 390 35,000  Level Memphis Center
01:51PM 33.6175 -88.9081 139° Southeast 351 404 35,000  Level Memphis Center
01:52PM 33.5392 -88.8269 139° Southeast 357 411 35,000  Level Memphis Center
01:53PM 33.4631 -88.7511 140° Southeast 357 411 35,000  Level Memphis Center
01:54PM 33.3869 -88.6703 138° Southeast 357 411 35,000  Level Memphis Center
01:55PM 33.3106 -88.5922 139° Southeast 357 411 35,000  Level Memphis Center
01:57PM 33.1364 -88.4147 140° Southeast 362 417 35,000  Level Atlanta Center
01:58PM 33.0556 -88.3339 140° Southeast 362 417 35,000  Level Atlanta Center
01:59PM 32.9769 -88.2556 140° Southeast 362 417 35,000  Level Atlanta Center
02:00PM 32.8981 -88.1778 140° Southeast 362 417 35,000  Level Atlanta Center
02:01PM 32.8236 -88.0975 138° Southeast 362 417 35,000  Level Atlanta Center
02:02PM 32.7428 -88.0147 139° Southeast 367 422 35,000  Level Atlanta Center
02:03PM 32.6639 -87.9372 140° Southeast 367 422 35,000  Level Atlanta Center
02:04PM 32.5789 -87.8569 141° Southeast 377 434 35,000 -420 Level Atlanta Center
02:05PM 32.4978 -87.7722 139° Southeast 388 447 34,200 -960 Descending Atlanta Center
02:06PM 32.4086 -87.6850 140° Southeast 388 447 33,100 -1,080 Descending Atlanta Center
02:07PM 32.3256 -87.6003 139° Southeast 388 447 32,100 -1,080 Descending Atlanta Center
02:08PM 32.2422 -87.5186 140° Southeast 388 447 31,000 -1,260 Descending Atlanta Center
02:09PM 32.1611 -87.4392 140° Southeast 404 465 29,600 -1,200 Descending Atlanta Center
02:10PM 32.0797 -87.3578 140° Southeast 404 465 28,600 -1,020 Descending Atlanta Center
02:11PM 31.9964 -87.2764 140° Southeast 398 458 27,600 -1,020 Descending Atlanta Center
02:12PM 31.9131 -87.1950 140° Southeast 392 451 26,600 -1,020 Descending Atlanta Center
02:13PM 31.8294 -87.1114 140° Southeast 392 451 25,600 -960 Descending Atlanta Center
02:15PM 31.6772 -86.9692 141° Southeast 386 444 24,000 -600 Descending Jacksonville Center
02:16PM 31.5942 -86.8875 140° Southeast 386 444 24,000  Level Jacksonville Center
02:17PM 31.5153 -86.8111 140° Southeast 386 444 24,000 -300 Level Jacksonville Center
02:18PM 31.4342 -86.7297 139° Southeast 386 444 23,400 -540 Descending Jacksonville Center
02:19PM 31.3531 -86.6533 141° Southeast 386 444 23,000 -240 Descending Jacksonville Center
02:20PM 31.2778 -86.5800 140° Southeast 381 438 23,000 -180 Level Jacksonville Center
02:21PM 31.2006 -86.5064 141° Southeast 370 426 22,700 -1,200 Descending Jacksonville Center
02:22PM 31.1194 -86.4281 140° Southeast 365 420 20,600 -2,160 Descending Jacksonville Center
02:23PM 31.0339 -86.3450 140° Southeast 365 420 18,400 -2,220 Descending Jacksonville Center
02:24PM 30.9625 -86.2794 142° Southeast 352 405 16,200 -2,640 Descending Jacksonville Center
02:25PM 30.8936 -86.2092 139° Southeast 338 389 13,200 -3,000 Descending Jacksonville Center
02:26PM 30.8222 -86.1389 140° Southeast 333 383 10,200 -2,220 Descending Jacksonville Center
02:27PM 30.7567 -86.0858 145° Southeast 320 368 8,800 -1,440 Descending Jacksonville Center
02:28PM 30.7119 -86.0386 138° Southeast 267 307 7,400 -2,040 Descending Jacksonville Center
02:29PM 30.6650 -85.9933 140° Southeast 235 270 4,800 -2,100 Descending Jacksonville Center
02:30PM 30.6142 -85.9436 140° Southeast 228 262 3,300 -900 Descending Jacksonville Center
02:31PM 30.5714 -85.8964 136° Southeast 228 262 3,000 -420 Descending Jacksonville Center
02:32PM 30.5261 -85.8683 152° Southeast 208 239 2,500 -480 Descending Jacksonville Center
02:33PM 30.4828 -85.8500 160° South 185 213 2,100 -480 Descending Jacksonville Center
02:34PM 30.4414 -85.8319 159° South 166 191 1,600 -660 Descending Jacksonville Center
02:35PM 30.4064 -85.8164 159° South 154 177 800 -660 Descending Jacksonville Center
02:36PM 30.3794 -85.8036 158° South 131 151 300 -300 Descending Jacksonville Center
02:37PM 30.3422 -85.7928 166° South 131 151 300  Level Jacksonville Center